M I D A S
Marine Information and Data Acquisition System
Tripno 1500 of the Zeeleeuw from 2008-06-10 06:42:01 to 2008-06-10 13:07:52
Back to CruiseResearch ActivitiesStationsMapUnderway DataData graphs

EquipmentUnitsComment
TimeDGPSUTC
LatitudeDGPSDM.mWGS84
LongitudeDGPSDM.mWGS84
TemperatureSBE03/SBE38deg celciusITS90
ConductivitySBE21S/mITS90
SalinitySBE21 Practical Salinity Units
ChlorophylAChelsea fluorimeterg/lCalibrated in Aceton
Missing or incorrect values are displayed as -999
Sea surface data collected by the RV Zeeleeuw from 2008-06-10 06:14:03 to 2008-06-10 13:10:29
Time Latitude Longitude Temperature Conductivity Salinity ChlorophylA
2008-06-10 06:15:08 51°13.644 2°55.97 19.8191 1.587427 10.473173 -1.662225
2008-06-10 06:16:08 51°13.678 2°55.843 19.8485 1.687532 11.193076 -1.662225
2008-06-10 06:17:08 51°13.687 2°55.756 19.8308 1.693931 11.239822 -1.662225
2008-06-10 06:18:08 51°13.695 2°55.74 19.8934 1.70611 11.328292 -1.662225
2008-06-10 06:19:08 51°13.774 2°55.693 19.7656 1.047506 6.680971 -1.662225
2008-06-10 06:20:08 51°13.89 2°55.592 19.8306 1.396868 9.118307 -1.662225
2008-06-10 06:21:08 51°14.023 2°55.491 19.8171 1.301358 8.445892 -1.662225
2008-06-10 06:22:08 51°14.139 2°55.402 19.8498 1.447106 9.474897 -1.662225
2008-06-10 06:23:08 51°14.265 2°55.243 19.8515 1.095854 7.015266 -1.662225
2008-06-10 06:24:08 51°14.397 2°55.014 19.7986 1.505087 9.887215 -1.662225
2008-06-10 06:25:08 51°14.555 2°54.808 19.8445 1.347976 8.773507 -1.662225
2008-06-10 06:26:08 51°14.692 2°54.576 19.8104 0.957521 6.066501 -1.662225
2008-06-10 06:27:08 51°14.819 2°54.327 19.8501 1.106988 7.092689 -1.662225
2008-06-10 06:28:08 51°14.952 2°54.084 19.8041 1.011118 6.432948 -1.662225
2008-06-10 06:29:08 51°15.072 2°53.825 19.8601 0.958552 6.073974 -1.662225
2008-06-10 06:30:08 51°15.154 2°53.536 19.8301 1.191739 7.681022 -1.662225
2008-06-10 06:31:08 51°15.221 2°53.242 19.8563 1.228448 7.937041 -1.662225
2008-06-10 06:32:08 51°15.274 2°52.944 19.8563 1.069154 6.832536 -1.662225
2008-06-10 06:33:08 51°15.335 2°52.647 19.8546 1.455669 9.537589 -1.662225
2008-06-10 06:34:08 51°15.394 2°52.348 19.8496 1.139361 7.317654 -1.662225
2008-06-10 06:35:08 51°15.446 2°52.047 19.8724 1.089153 6.970685 -1.662225
2008-06-10 06:36:08 51°15.491 2°51.743 19.8937 1.467636 9.622764 -1.662225
2008-06-10 06:37:08 51°15.513 2°51.435 19.8997 1.065442 6.8076 -1.662225
2008-06-10 06:38:08 51°15.514 2°51.125 19.8686 1.166374 7.505769 -1.662225
2008-06-10 06:39:08 51°15.529 2°50.815 19.8875 1.348286 8.779402 -1.662225
2008-06-10 06:40:08 51°15.535 2°50.508 19.9015 1.464231 9.599813 -1.662225
2008-06-10 06:41:08 51°15.533 2°50.201 19.9024 1.21164 7.821658 -1.662225
2008-06-10 06:42:08 51°15.523 2°49.891 19.8537 0.680963 4.209425 -1.662225
2008-06-10 06:43:08 51°15.537 2°49.584 19.8163 1.584021 10.455532 -1.662225
2008-06-10 06:44:08 51°15.608 2°49.291 19.8412 1.158229 7.450301 -1.697049
2008-06-10 06:45:08 51°15.667 2°48.989 19.8578 1.434624 9.391054 -1.662225
2008-06-10 06:46:08 51°15.723 2°48.683 19.8749 1.35891 8.855594 -1.662225
2008-06-10 06:47:08 51°15.761 2°48.373 19.8656 0.885277 5.578163 -1.662225
2008-06-10 06:48:08 51°15.766 2°48.062 19.8849 1.20999 7.811017 -1.662225
2008-06-10 06:49:08 51°15.748 2°47.752 19.8817 1.602183 10.586875 -1.662225
2008-06-10 06:50:08 51°15.731 2°47.444 19.8925 1.461549 9.582698 -1.662225
2008-06-10 06:51:08 51°15.718 2°47.137 19.898 1.415849 9.259199 -1.662225
2008-06-10 06:52:08 51°15.698 2°46.832 19.9185 1.275988 8.273475 -1.697049
2008-06-10 06:53:08 51°15.681 2°46.527 19.9256 1.458661 9.563058 -1.662225
2008-06-10 06:54:08 51°15.655 2°46.227 19.9044 1.631595 10.799419 -1.662225
2008-06-10 06:55:08 51°15.641 2°45.925 19.9498 1.56163 10.2981 -1.662225
2008-06-10 06:56:08 51°15.616 2°45.625 19.96 1.510968 9.936246 -1.697049
2008-06-10 06:57:08 51°15.592 2°45.324 19.9529 1.18215 7.618931 -1.697049
2008-06-10 06:58:08 51°15.573 2°45.021 19.9869 1.372009 8.950334 -1.662225
2008-06-10 06:59:08 51°15.552 2°44.72 19.9856 1.169983 7.534999 -1.662225
2008-06-10 07:00:08 51°15.532 2°44.418 19.9727 1.468977 9.637973 -1.697049
2008-06-10 07:01:08 51°15.521 2°44.112 20.0239 1.516849 9.979476 -1.662225
2008-06-10 07:02:08 51°15.494 2°43.808 20.0377 1.289911 8.373126 -1.697049
2008-06-10 07:03:08 51°15.467 2°43.501 20.0502 1.149568 7.393727 -1.662225
2008-06-10 07:04:08 51°15.446 2°43.191 20.0562 1.38119 9.016842 -1.662225
2008-06-10 07:05:08 51°15.415 2°42.885 20.0288 1.194214 7.704483 -1.662225
2008-06-10 07:06:08 51°15.38 2°42.577 20.0567 1.39398 9.107448 -1.662225
2008-06-10 07:07:08 51°15.344 2°42.27 20.0342 1.411104 9.228996 -1.662225
2008-06-10 07:08:08 51°15.318 2°41.959 20.0877 1.484453 9.749866 -1.662225
2008-06-10 07:09:08 51°15.289 2°41.647 20.0842 1.138845 7.320139 -1.662225
2008-06-10 07:10:08 51°15.253 2°41.341 20.104 1.028539 6.558676 -1.662225
2008-06-10 07:11:08 51°15.235 2°41.03 20.1113 1.585157 10.470416 -1.662225
2008-06-10 07:12:08 51°15.235 2°40.716 20.1183 1.516952 9.982604 -1.662225
2008-06-10 07:13:08 51°15.23 2°40.402 20.1294 1.218446 7.875068 -1.662225
2008-06-10 07:14:08 51°15.219 2°40.087 20.1403 1.369431 8.935748 -1.662225
2008-06-10 07:15:08 51°15.204 2°39.771 20.1506 1.539342 10.143058 -1.662225
2008-06-10 07:16:08 51°15.192 2°39.454 20.1676 1.426268 9.338526 -1.697049
2008-06-10 07:17:08 51°15.175 2°39.139 20.1573 1.342201 8.744098 -1.662225
2008-06-10 07:18:08 51°15.159 2°38.93 20.2112 1.639541 10.863154 -1.697049
2008-06-10 07:19:08 51°15.129 2°38.758 20.2031 1.674528 11.114753 -1.662225
2008-06-10 07:20:08 51°15.11 2°38.555 20.2212 1.516436 9.981499 -1.662225
2008-06-10 07:21:08 51°15.077 2°38.386 20.2388 1.516643 9.983156 -1.662225
2008-06-10 07:22:08 51°15.043 2°38.322 20.252 1.517262 9.987575 -1.662225
2008-06-10 07:23:08 51°15.016 2°38.299 20.264 1.441742 9.450072 -1.697049
2008-06-10 07:24:08 51°14.991 2°38.236 16.305 2.958059 20.80206 4.501632
2008-06-10 07:25:08 51°15.03 2°38.151 15.8662 4.195597 32.933551 0.949579
2008-06-10 07:26:08 51°15.089 2°38.127 15.8357 4.19446 33.181341 0.949579
2008-06-10 07:27:08 51°15.138 2°38.128 15.8119 4.186368 33.161138 1.019227
2008-06-10 07:28:08 51°15.183 2°38.134 15.8023 4.189689 33.212469 0.949579
2008-06-10 07:29:08 51°15.228 2°38.138 15.7887 4.190104 33.231947 0.879931
2008-06-10 07:30:08 51°15.275 2°38.142 15.7921 4.188029 33.213566 0.670986
2008-06-10 07:31:08 51°15.321 2°38.144 15.7971 4.18502 33.189662 0.566514
2008-06-10 07:32:08 51°15.367 2°38.145 15.7998 4.184709 33.184846 0.566514
2008-06-10 07:33:08 51°15.413 2°38.148 15.8009 4.186161 33.195651 0.601338
2008-06-10 07:34:08 51°15.459 2°38.154 15.8083 4.186161 33.197711 0.566514
2008-06-10 07:35:08 51°15.506 2°38.162 15.7879 4.186265 33.202751 0.53169
2008-06-10 07:36:08 51°15.551 2°38.178 15.7876 4.185643 33.202732 0.670986
2008-06-10 07:37:08 51°15.596 2°38.199 15.7847 4.185954 33.206177 0.566514
2008-06-10 07:38:08 51°15.641 2°38.219 15.7947 4.185954 33.207551 0.53169
2008-06-10 07:39:08 51°15.685 2°38.243 15.81 4.18668 33.212612 0.53169
2008-06-10 07:40:08 51°15.729 2°38.268 15.798 4.188962 33.217714 0.53169
2008-06-10 07:41:08 51°15.773 2°38.294 15.7904 4.187303 33.21744 0.53169
2008-06-10 07:42:08 51°15.816 2°38.324 15.7978 4.186991 33.213307 0.566514
2008-06-10 07:43:08 51°15.858 2°38.355 15.7999 4.187614 33.212638 0.566514
2008-06-10 07:44:08 51°15.898 2°38.393 15.7983 4.18585 33.203196 0.601338
2008-06-10 07:45:08 51°15.933 2°38.441 15.7914 4.184812 33.188511 0.601338
2008-06-10 07:46:08 51°15.962 2°38.494 15.7943 4.183775 33.186874 0.566514
2008-06-10 07:47:08 51°16.006 2°38.604 15.7986 4.183982 33.185278 0.496866
2008-06-10 07:48:08 51°16.044 2°38.783 15.7955 4.181596 33.161396 0.636162
2008-06-10 07:49:08 51°16.032 2°38.903 15.8099 4.175371 33.105585 0.35757
2008-06-10 07:50:08 51°15.999 2°39.011 15.8131 4.173607 33.081756 0.427218
2008-06-10 07:51:08 51°15.969 2°39.067 15.8391 4.174852 33.079095 0.253098
2008-06-10 07:52:08 51°15.944 2°39.104 15.8286 4.180766 33.122526 0.427218
2008-06-10 07:53:08 51°15.912 2°39.135 15.8011 4.179936 33.12956 0.566514
2008-06-10 07:54:08 51°15.828 2°39.223 15.8313 4.178587 33.118992 0.496866
2008-06-10 07:55:08 51°15.716 2°39.448 15.8292 4.180869 33.122075 0.427218
2008-06-10 07:56:08 51°15.611 2°39.727 15.8602 4.183152 33.148436 0.566514
2008-06-10 07:57:08 51°15.51 2°40.007 15.8419 4.191245 33.213203 0.949579
2008-06-10 07:58:08 51°15.408 2°40.283 15.9033 4.193735 33.22975 1.262995
2008-06-10 07:59:08 51°15.327 2°40.574 15.9804 4.182839 33.048029 1.193347
2008-06-10 08:00:08 51°15.237 2°40.856 16.0647 4.169454 32.879868 0.879931
2008-06-10 08:01:08 51°15.159 2°41.144 16.0438 4.161776 32.761775 0.287922
2008-06-10 08:02:08 51°15.091 2°41.44 16.0293 4.15493 32.742594 0.35757
2008-06-10 08:03:08 51°15.018 2°41.737 16.0115 4.153789 32.741302 0.427218
2008-06-10 08:04:08 51°14.934 2°42.03 16.0797 4.149016 32.684534 0.35757
2008-06-10 08:05:08 51°14.851 2°42.326 16.1219 4.15441 32.676266 0.322746
2008-06-10 08:06:08 51°14.789 2°42.633 16.2715 4.159285 32.662168 0.670986
2008-06-10 08:07:08 51°14.776 2°42.957 16.2787 4.157312 32.546359 0.566514
2008-06-10 08:08:08 51°14.801 2°43.213 16.2946 4.135215 32.376444 0.427218
2008-06-10 08:09:08 51°14.83 2°43.338 16.2781 4.13231 32.321394 0.148626
2008-06-10 08:10:08 51°14.842 2°43.43 16.2301 4.128057 32.321164 0.53169
2008-06-10 08:11:08 51°14.851 2°43.515 16.3242 4.124634 32.296529 0.322746
2008-06-10 08:12:08 51°14.869 2°43.604 16.3624 4.130131 32.275414 0.078977
2008-06-10 08:13:08 51°14.895 2°43.692 16.3708 4.131064 32.256632 0.009329
2008-06-10 08:14:08 51°14.912 2°43.775 16.3197 4.129508 32.268016 0.287922
2008-06-10 08:15:08 51°14.922 2°43.852 16.3645 4.127537 32.251487 0.253098
2008-06-10 08:16:08 51°14.936 2°43.924 16.387 4.130442 32.261708 0.078977
2008-06-10 08:17:08 51°14.959 2°43.991 16.3772 4.131894 32.246811 0.009329
2008-06-10 08:18:08 51°14.988 2°44.052 16.3759 4.1293 32.224882 -0.025495
2008-06-10 08:19:08 51°15.02 2°44.11 16.3609 4.12484 32.193895 -0.025495
2008-06-10 08:20:08 51°15.049 2°44.173 16.3987 4.12152 32.175455 0.044153
2008-06-10 08:21:08 51°15.078 2°44.235 16.3873 4.124009 32.163781 -0.060319
2008-06-10 08:22:08 51°15.108 2°44.295 16.3861 4.119134 32.149443 0.009329
2008-06-10 08:23:08 51°15.14 2°44.355 16.4036 4.117163 32.118565 -0.025495
2008-06-10 08:24:08 51°15.17 2°44.414 16.3975 4.115606 32.08937 -0.060319
2008-06-10 08:25:08 51°15.198 2°44.477 16.3817 4.112702 32.075182 -0.025495
2008-06-10 08:26:08 51°15.222 2°44.544 16.3849 4.11125 32.06776 -0.025495
2008-06-10 08:27:08 51°15.244 2°44.612 16.4128 4.110731 32.06064 -0.060319
2008-06-10 08:28:08 51°15.269 2°44.681 16.4373 4.112702 32.051736 -0.164791
2008-06-10 08:29:08 51°15.3 2°44.747 16.4443 4.113946 32.049545 -0.199615
2008-06-10 08:30:08 51°15.336 2°44.81 16.4583 4.114569 32.049751 -0.234439
2008-06-10 08:31:08 51°15.372 2°44.872 16.4133 4.116021 32.053267 -0.234439
2008-06-10 08:32:08 51°15.399 2°44.945 16.3642 4.111665 32.061596 -0.060319
2008-06-10 08:33:08 51°15.416 2°45.024 16.3705 4.109072 32.061838 0.044153
2008-06-10 08:34:08 51°15.423 2°45.105 16.3844 4.108968 32.064848 0.044153
2008-06-10 08:35:08 51°15.428 2°45.183 16.4447 4.11239 32.050332 -0.199615
2008-06-10 08:36:08 51°15.427 2°45.259 16.3047 4.112494 32.060999 -0.025495
2008-06-10 08:37:08 51°15.414 2°45.323 16.3174 4.103574 32.063545 0.218274
2008-06-10 08:38:08 51°15.4 2°45.363 16.34 4.103574 32.04592 0.044153
2008-06-10 08:39:08 51°15.388 2°45.391 16.3335 4.1043 32.041157 0.078977
2008-06-10 08:40:08 51°15.378 2°45.435 16.4127 4.104715 32.026523 -0.129967
2008-06-10 08:41:08 51°15.395 2°45.508 16.4813 4.108967 32.030326 -0.095143
2008-06-10 08:42:08 51°15.427 2°45.597 16.4888 4.114464 32.026758 -0.304087
2008-06-10 08:43:08 51°15.455 2°45.672 16.4575 4.113739 32.03734 -0.234439
2008-06-10 08:44:08 51°15.477 2°45.736 16.5175 4.113427 32.014505 -0.269263
2008-06-10 08:45:08 51°15.501 2°45.803 16.5256 4.116642 32.004803 -0.304087
2008-06-10 08:46:08 51°15.525 2°45.872 16.5432 4.115916 31.995915 -0.234439
2008-06-10 08:47:08 51°15.549 2°45.941 16.5663 4.117161 31.986641 -0.269263
2008-06-10 08:48:08 51°15.573 2°46.009 16.5778 4.117679 31.984021 -0.234439
2008-06-10 08:49:08 51°15.597 2°46.078 16.6116 4.11882 31.977099 -0.234439
2008-06-10 08:50:08 51°15.621 2°46.146 16.577 4.119338 31.96738 -0.199615
2008-06-10 08:51:08 51°15.645 2°46.214 16.5734 4.116019 31.954779 -0.164791
2008-06-10 08:52:08 51°15.668 2°46.282 16.6061 4.1155 31.949641 -0.199615
2008-06-10 08:53:08 51°15.691 2°46.35 16.6131 4.117679 31.954948 -0.199615
2008-06-10 08:54:08 51°15.714 2°46.418 16.6152 4.119234 31.951641 -0.234439
2008-06-10 08:55:08 51°15.738 2°46.485 16.6208 4.118093 31.950151 -0.199615
2008-06-10 08:56:08 51°15.761 2°46.553 16.599 4.11799 31.946028 -0.199615
2008-06-10 08:57:08 51°15.784 2°46.62 16.6042 4.116123 31.940832 -0.199615
2008-06-10 08:58:08 51°15.807 2°46.687 16.6148 4.117782 31.941008 -0.234439
2008-06-10 08:59:08 51°15.83 2°46.754 16.5981 4.117575 31.944372 -0.199615
2008-06-10 09:00:08 51°15.853 2°46.821 16.6083 4.11633 31.945209 -0.164791
2008-06-10 09:01:08 51°15.875 2°46.888 16.6034 4.117575 31.945662 -0.199615
2008-06-10 09:02:08 51°15.897 2°46.956 16.6082 4.11799 31.946673 -0.234439
2008-06-10 09:03:08 51°15.919 2°47.024 16.6042 4.11799 31.951834 -0.199615
2008-06-10 09:04:08 51°15.941 2°47.092 16.6089 4.118923 31.955398 -0.234439
2008-06-10 09:05:08 51°15.962 2°47.16 16.5836 4.11882 31.961599 -0.234439
2008-06-10 09:06:08 51°15.983 2°47.228 16.586 4.11799 31.96539 -0.234439
2008-06-10 09:07:08 51°16.004 2°47.297 16.6121 4.119442 31.967633 -0.234439
2008-06-10 09:08:08 51°16.025 2°47.363 16.6059 4.121206 31.971924 -0.269263
2008-06-10 09:09:08 51°16.044 2°47.428 16.6436 4.122139 31.980004 -0.304087
2008-06-10 09:10:08 51°16.053 2°47.496 16.5143 4.124525 32.007764 -0.129967
2008-06-10 09:11:08 51°16.046 2°47.549 16.585 4.122347 32.007002 -0.129967
2008-06-10 09:12:08 51°16.02 2°47.615 16.5853 4.124422 32.024975 -0.129967
2008-06-10 09:13:08 51°15.953 2°47.697 16.4399 4.126082 32.053604 -0.060319
2008-06-10 09:14:08 51°15.898 2°47.732 16.499 4.120066 32.081261 -0.025495
2008-06-10 09:15:08 51°15.857 2°47.741 16.7007 4.123696 32.021272 -0.129967
2008-06-10 09:16:08 51°15.825 2°47.737 16.5994 4.125769 31.961753 -0.060319
2008-06-10 09:17:08 51°15.799 2°47.729 16.5713 4.112181 31.915091 0.078977
2008-06-10 09:18:08 51°15.777 2°47.721 16.5703 4.108446 31.894362 0.113802
2008-06-10 09:19:08 51°15.759 2°47.713 16.5829 4.107824 31.882528 0.113802
2008-06-10 09:20:08 51°15.731 2°47.726 16.6737 4.110313 31.866096 0.044153
2008-06-10 09:21:08 51°15.73 2°47.785 16.6811 4.11581 31.871847 -0.025495
2008-06-10 09:22:08 51°15.779 2°47.884 16.6577 4.115603 31.863636 -0.199615
2008-06-10 09:23:08 51°15.844 2°48.023 16.6553 4.115292 31.873789 -0.025495
2008-06-10 09:24:08 51°15.918 2°48.156 16.313 4.116537 31.924437 -0.338911
2008-06-10 09:25:08 51°15.99 2°48.289 16.2491 4.083554 31.87548 -0.129967
2008-06-10 09:26:08 51°16.065 2°48.427 16.1431 4.071522 31.833631 -0.095143
2008-06-10 09:27:08 51°16.146 2°48.574 16.119 4.058039 31.797215 0.009329
2008-06-10 09:28:08 51°16.228 2°48.725 16.1679 4.056172 31.782205 -0.025495
2008-06-10 09:29:08 51°16.309 2°48.877 16.2287 4.058246 31.76977 -0.025495
2008-06-10 09:30:08 51°16.39 2°49.028 16.2717 4.063432 31.759213 -0.129967
2008-06-10 09:31:08 51°16.475 2°49.173 16.3319 4.067995 31.756235 -0.234439
2008-06-10 09:32:08 51°16.568 2°49.309 16.4508 4.073284 31.767347 -0.234439
2008-06-10 09:33:08 51°16.661 2°49.443 16.3628 4.084486 31.807858 -0.199615
2008-06-10 09:34:08 51°16.756 2°49.573 16.4409 4.079196 31.79161 -0.269263
2008-06-10 09:35:08 51°16.853 2°49.699 16.2509 4.084174 31.767753 -0.304087
2008-06-10 09:36:08 51°16.949 2°49.828 16.3374 4.066336 31.75602 -0.025495
2008-06-10 09:37:08 51°17.052 2°49.94 16.3926 4.072247 31.748638 -0.129967
2008-06-10 09:38:08 51°17.183 2°50.039 16.3845 4.076188 31.76805 -0.199615
2008-06-10 09:39:08 51°17.3 2°50.118 16.326 4.076603 31.778115 -0.060319
2008-06-10 09:40:08 51°17.444 2°50.219 16.2679 4.069758 31.745074 -0.060319
2008-06-10 09:41:08 51°17.593 2°50.353 16.3498 4.060216 31.719544 0.113802
2008-06-10 09:42:08 51°17.762 2°50.505 16.2844 4.063949 31.702944 0.009329
2008-06-10 09:43:08 51°17.932 2°50.658 16.303 4.058037 31.683128 0.078977
2008-06-10 09:44:08 51°18.098 2°50.825 16.4011 4.058348 31.647788 0.287922
2008-06-10 09:45:08 51°18.263 2°50.991 16.6069 4.062807 31.638931 0.35757
2008-06-10 09:46:08 51°18.413 2°51.183 16.7056 4.080231 31.611848 0.35757
2008-06-10 09:47:08 51°18.553 2°51.393 16.8627 4.086038 31.586202 0.53169
2008-06-10 09:48:08 51°18.694 2°51.601 16.852 4.089149 31.53626 0.740634
2008-06-10 09:49:08 51°18.839 2°51.799 16.8978 4.08168 31.446807 0.914755
2008-06-10 09:50:08 51°18.994 2°51.977 16.7415 4.068818 31.393617 1.367467
2008-06-10 09:51:08 51°19.113 2°52.103 16.85 4.041644 31.208886 1.64606
2008-06-10 09:52:08 51°19.187 2°52.155 16.9199 4.041227 31.102711 1.158523
2008-06-10 09:53:08 51°19.246 2°52.155 16.6929 4.03241 30.967536 0.566514
2008-06-10 09:54:08 51°19.286 2°52.146 16.846 4.014367 31.047986 1.855004
2008-06-10 09:55:08 51°19.293 2°52.121 16.478 4.010633 30.989555 1.715708
2008-06-10 09:56:08 51°19.284 2°52.102 16.4145 4.002235 31.084611 2.238069
2008-06-10 09:57:08 51°19.273 2°52.08 16.3921 3.996013 31.040215 2.377365
2008-06-10 09:58:08 51°19.262 2°52.058 16.6647 3.992901 31.012662 2.481837
2008-06-10 09:59:08 51°19.25 2°52.036 16.8773 4.009595 30.927027 1.855004
2008-06-10 10:00:08 51°19.237 2°52.013 16.6357 4.021936 30.966478 1.889828
2008-06-10 10:01:08 51°19.223 2°51.991 16.5096 4.011878 31.012146 2.098773
2008-06-10 10:02:08 51°19.209 2°51.969 16.5582 4.000989 31.002792 2.481837
2008-06-10 10:03:08 51°19.194 2°51.948 16.4555 4.000678 30.971288 2.551485
2008-06-10 10:04:08 51°19.179 2°51.927 16.3968 3.998293 31.007117 2.412189
2008-06-10 10:05:08 51°19.155 2°51.858 16.4916 4.001821 31.105631 2.307717
2008-06-10 10:06:08 51°19.077 2°51.859 16.6075 3.996427 31.011086 2.447013
2008-06-10 10:07:08 51°19.091 2°52.013 16.7607 3.999018 30.957602 2.238069
2008-06-10 10:08:08 51°19.173 2°52.164 16.9489 4.009386 30.843994 1.193347
2008-06-10 10:09:08 51°19.23 2°52.176 17.1781 4.025666 30.794138 0.53169
2008-06-10 10:10:08 51°19.272 2°52.15 16.9579 4.027014 30.771333 0.636162
2008-06-10 10:11:08 51°19.271 2°52.122 16.5297 4.02069 30.846298 1.158523
2008-06-10 10:12:08 51°19.259 2°52.097 16.7101 3.984396 30.867083 2.899726
2008-06-10 10:13:08 51°19.243 2°52.071 16.6635 4.000675 30.826216 2.481837
2008-06-10 10:14:08 51°19.226 2°52.046 16.6147 4.007211 30.996957 2.238069
2008-06-10 10:15:08 51°19.206 2°52.022 16.6091 4.001818 30.937372 2.203245
2008-06-10 10:16:08 51°19.187 2°51.999 16.6239 4.000469 30.898959 2.272893
2008-06-10 10:17:08 51°19.169 2°51.977 16.6421 4.000677 30.93129 2.203245
2008-06-10 10:18:08 51°19.151 2°51.956 16.6101 4.003373 30.910244 2.098773
2008-06-10 10:19:08 51°19.134 2°51.933 16.6786 4.00524 30.964352 2.098773
2008-06-10 10:20:08 51°19.117 2°51.909 16.6819 4.008558 30.936783 1.959476
2008-06-10 10:21:08 51°19.1 2°51.884 16.7598 4.007728 30.921559 2.133597
2008-06-10 10:22:08 51°19.034 2°51.847 16.9325 4.010009 30.892693 2.342541
2008-06-10 10:23:08 51°19.021 2°51.939 16.9218 4.012705 30.867488 2.029124
2008-06-10 10:24:08 51°19.125 2°52.044 17.0425 4.020586 30.829398 1.262995
2008-06-10 10:25:08 51°19.219 2°52.139 16.9251 4.024942 30.888202 1.959476
2008-06-10 10:26:08 51°19.266 2°52.161 17.0646 4.025252 30.836646 1.123699
2008-06-10 10:27:08 51°19.284 2°52.129 17.0702 4.03106 30.856078 1.506764
2008-06-10 10:28:08 51°19.272 2°52.097 16.8284 4.031579 30.86788 1.82018
2008-06-10 10:29:08 51°19.257 2°52.066 16.8348 4.024113 30.926228 2.412189
2008-06-10 10:30:08 51°19.24 2°52.035 16.9443 4.021833 30.979262 2.481837
2008-06-10 10:31:08 51°19.221 2°52.003 16.8184 4.026809 30.908489 2.412189
2008-06-10 10:32:08 51°19.203 2°51.97 16.7142 4.027018 31.015681 2.447013
2008-06-10 10:33:08 51°19.184 2°51.937 16.6862 4.024737 31.056566 2.342541
2008-06-10 10:34:08 51°19.166 2°51.903 16.6926 4.02339 31.069973 2.307717
2008-06-10 10:35:08 51°19.148 2°51.868 16.7765 4.020589 31.013412 2.168421
2008-06-10 10:36:08 51°19.13 2°51.833 16.8143 4.021832 30.954409 1.9943
2008-06-10 10:37:08 51°19.113 2°51.8 16.7271 4.022247 30.961072 2.203245
2008-06-10 10:38:08 51°19.095 2°51.766 16.7344 4.018825 30.995142 2.447013
2008-06-10 10:39:08 51°19.077 2°51.732 16.7433 4.019137 30.991584 2.516661
2008-06-10 10:40:08 51°19.059 2°51.699 16.7692 4.020588 30.993469 2.551485
2008-06-10 10:41:08 51°19.04 2°51.667 16.7916 4.021625 30.978104 2.516661
2008-06-10 10:42:08 51°19.021 2°51.636 16.7937 4.022455 30.97652 2.586309
2008-06-10 10:43:08 51°18.997 2°51.593 16.7872 4.022766 30.971732 2.586309
2008-06-10 10:44:08 51°18.946 2°51.53 16.875 4.023906 30.952336 2.586309
2008-06-10 10:45:08 51°18.889 2°51.536 17.0135 4.026498 30.905828 1.9943
2008-06-10 10:46:08 51°18.869 2°51.589 17.1488 4.034483 30.919148 1.855004
2008-06-10 10:47:08 51°18.853 2°51.671 17.0593 4.047135 30.900933 1.088875
2008-06-10 10:48:08 51°18.818 2°51.772 17.093 4.04361 30.990307 2.133597
2008-06-10 10:49:08 51°18.78 2°51.879 17.0763 4.049521 30.948263 1.367467
2008-06-10 10:50:08 51°18.747 2°51.985 17.0228 4.053671 31.045919 1.506764
2008-06-10 10:51:08 51°18.771 2°52.044 17.0862 4.050456 31.034548 1.855004
2008-06-10 10:52:08 51°18.805 2°52.11 17.0597 4.049418 30.97323 1.367467
2008-06-10 10:53:08 51°18.833 2°52.176 16.93 4.043817 30.963062 1.332643
2008-06-10 10:54:08 51°18.866 2°52.227 16.8355 4.031684 30.981768 1.541588
2008-06-10 10:55:08 51°18.902 2°52.272 16.8213 4.023076 30.945845 1.576412
2008-06-10 10:56:08 51°18.928 2°52.333 16.7458 4.017995 30.928946 1.959476
2008-06-10 10:57:08 51°18.95 2°52.398 16.7728 4.011876 30.908095 1.82018
2008-06-10 10:58:08 51°18.983 2°52.452 16.7947 4.011461 30.892126 1.680884
2008-06-10 10:59:08 51°19.013 2°52.519 16.7913 4.010424 30.875171 1.82018
2008-06-10 11:00:08 51°19.034 2°52.59 16.8382 4.009283 30.858574 1.82018
2008-06-10 11:01:08 51°19.059 2°52.652 16.8572 4.012186 30.849439 1.64606
2008-06-10 11:02:08 51°19.087 2°52.712 16.8574 4.012912 30.839593 1.611236
2008-06-10 11:03:08 51°19.108 2°52.78 16.8969 4.011771 30.829826 1.715708
2008-06-10 11:04:08 51°19.13 2°52.846 16.8845 4.013015 30.807789 1.541588
2008-06-10 11:05:08 51°19.155 2°52.907 16.8628 4.011149 30.817093 1.611236
2008-06-10 11:06:08 51°19.177 2°52.973 16.8528 4.009593 30.813648 1.611236
2008-06-10 11:07:08 51°19.191 2°53.046 16.8833 4.007519 30.800208 1.715708
2008-06-10 11:08:08 51°19.206 2°53.115 16.8711 4.00783 30.781911 1.750532
2008-06-10 11:09:08 51°19.232 2°53.18 16.9132 4.007 30.768655 1.715708
2008-06-10 11:10:08 51°19.254 2°53.255 16.9233 4.007207 30.751357 1.715708
2008-06-10 11:11:08 51°19.273 2°53.334 16.9641 4.006585 30.738049 1.750532
2008-06-10 11:12:08 51°19.297 2°53.405 17.0042 4.009384 30.722688 1.611236
2008-06-10 11:13:08 51°19.324 2°53.475 17.0398 4.012806 30.718192 1.506764
2008-06-10 11:14:08 51°19.35 2°53.545 17.1124 4.015502 30.718538 1.506764
2008-06-10 11:15:08 51°19.374 2°53.615 17.175 4.021102 30.711242 1.47194
2008-06-10 11:16:08 51°19.388 2°53.691 17.1491 4.024628 30.707082 1.402292
2008-06-10 11:17:08 51°19.369 2°53.772 16.9965 4.020376 30.720937 2.063949
2008-06-10 11:18:08 51°19.337 2°53.817 16.8618 4.010007 30.748865 2.377365
2008-06-10 11:19:08 51°19.303 2°53.851 16.7752 4.002022 30.754383 2.238069
2008-06-10 11:20:08 51°19.26 2°53.916 16.7574 3.998186 30.778878 2.203245
2008-06-10 11:21:08 51°19.225 2°53.955 16.7744 3.999949 30.797089 2.272893
2008-06-10 11:22:08 51°19.2 2°53.972 16.7516 4.00306 30.820063 2.516661
2008-06-10 11:23:08 51°19.18 2°53.975 16.7515 4.002957 30.835887 2.830078
2008-06-10 11:24:08 51°19.16 2°53.967 16.7492 4.003061 30.841733 2.864902
2008-06-10 11:25:08 51°19.148 2°53.974 16.7651 4.003579 30.843705 2.864902
2008-06-10 11:26:08 51°19.176 2°53.994 16.762 4.004616 30.841455 2.795254
2008-06-10 11:27:08 51°19.232 2°54.035 16.7321 4.003683 30.833447 2.377365
2008-06-10 11:28:08 51°19.274 2°54.088 16.691 3.998913 30.829668 2.969374
2008-06-10 11:29:08 51°19.306 2°54.147 16.681 3.993624 30.805931 2.516661
2008-06-10 11:30:08 51°19.342 2°54.206 16.6593 3.990305 30.78733 2.447013
2008-06-10 11:31:08 51°19.384 2°54.256 16.6633 3.987298 30.768298 2.481837
2008-06-10 11:32:08 51°19.425 2°54.308 16.6619 3.983979 30.74411 2.551485
2008-06-10 11:33:08 51°19.455 2°54.377 16.6321 3.979935 30.719248 2.899726
2008-06-10 11:34:08 51°19.485 2°54.442 16.6188 3.976513 30.704058 2.76043
2008-06-10 11:35:08 51°19.524 2°54.49 16.6148 3.974231 30.694959 2.899726
2008-06-10 11:36:08 51°19.56 2°54.545 16.5949 3.971535 30.669911 2.969374
2008-06-10 11:37:08 51°19.593 2°54.608 16.581 3.96718 30.65038 3.004198
2008-06-10 11:38:08 51°19.623 2°54.672 16.5796 3.964276 30.630343 2.969374
2008-06-10 11:39:08 51°19.651 2°54.738 16.5878 3.962617 30.615449 2.795254
2008-06-10 11:40:08 51°19.678 2°54.806 16.5671 3.961165 30.608518 2.93455
2008-06-10 11:41:08 51°19.702 2°54.878 16.5755 3.959506 30.599801 3.073846
2008-06-10 11:42:08 51°19.728 2°54.945 16.5717 3.959402 30.592732 3.004198
2008-06-10 11:43:08 51°19.757 2°55.007 16.5697 3.958261 30.587239 3.039022
2008-06-10 11:44:08 51°19.786 2°55.071 16.5862 3.957224 30.580786 3.143494
2008-06-10 11:45:08 51°19.809 2°55.141 16.5863 3.957432 30.571461 3.039022
2008-06-10 11:46:08 51°19.832 2°55.212 16.5891 3.957328 30.570568 3.073846
2008-06-10 11:47:08 51°19.855 2°55.278 16.5767 3.957224 30.56906 3.28279
2008-06-10 11:48:08 51°19.883 2°55.341 16.5796 3.956187 30.566308 3.247966
2008-06-10 11:49:08 51°19.912 2°55.4 16.5651 3.95598 30.566992 3.456911
2008-06-10 11:50:08 51°19.944 2°55.458 16.5758 3.954839 30.563348 3.491735
2008-06-10 11:51:08 51°19.976 2°55.513 16.5688 3.955565 30.558488 3.247966
2008-06-10 11:52:08 51°20.007 2°55.566 16.5694 3.955047 30.557729 3.456911
2008-06-10 11:53:08 51°20.034 2°55.619 16.5858 3.954736 30.55752 3.422087
2008-06-10 11:54:08 51°20.031 2°55.691 16.5876 3.954632 30.559095 3.805151
2008-06-10 11:55:08 51°20.006 2°55.762 16.5995 3.956084 30.561098 3.631031
2008-06-10 11:56:09 51°19.95 2°55.831 16.5939 3.958261 30.572427 4.014096
2008-06-10 11:57:08 51°19.873 2°55.869 16.6076 3.96075 30.593216 4.22304
2008-06-10 11:58:09 51°19.779 2°55.85 16.6479 3.965209 30.616748 4.118568
2008-06-10 11:59:08 51°19.704 2°55.787 16.6713 3.970601 30.637792 4.118568
2008-06-10 12:00:08 51°19.658 2°55.721 16.6856 3.974023 30.651764 3.874799
2008-06-10 12:01:08 51°19.626 2°55.665 16.6835 3.976927 30.656341 3.665855
2008-06-10 12:02:08 51°19.6 2°55.618 16.6696 3.976305 30.666424 3.909623
2008-06-10 12:03:08 51°19.575 2°55.576 16.6694 3.97589 30.669035 3.909623
2008-06-10 12:04:08 51°19.552 2°55.536 16.6685 3.976305 30.671363 3.874799
2008-06-10 12:05:08 51°19.53 2°55.493 16.6728 3.976305 30.673216 3.874799
2008-06-10 12:06:08 51°19.499 2°55.42 16.659 3.977031 30.673894 3.839975
2008-06-10 12:07:08 51°19.431 2°55.297 16.6495 3.975786 30.680499 4.188216
2008-06-10 12:08:08 51°19.352 2°55.148 16.6516 3.976409 30.687702 4.188216
2008-06-10 12:09:08 51°19.253 2°54.958 16.6568 3.978172 30.697908 4.083744
2008-06-10 12:10:08 51°19.141 2°54.747 16.6718 3.98232 30.726754 4.014096
2008-06-10 12:11:08 51°19.016 2°54.504 16.6843 3.986883 30.761016 3.979271
2008-06-10 12:12:08 51°18.901 2°54.291 16.71 3.992379 30.792759 3.874799
2008-06-10 12:13:08 51°18.825 2°54.21 16.7569 3.998083 30.815108 3.073846
2008-06-10 12:14:09 51°18.762 2°54.165 16.77 4.003579 30.835034 2.899726
2008-06-10 12:15:08 51°18.709 2°54.132 16.7722 4.007624 30.866641 3.10867
2008-06-10 12:16:09 51°18.66 2°54.104 16.7807 4.011565 30.893636 3.213142
2008-06-10 12:17:08 51°18.616 2°54.083 16.7949 4.014261 30.914912 3.387263
2008-06-10 12:18:08 51°18.574 2°54.064 16.7939 4.017373 30.931676 3.387263
2008-06-10 12:19:08 51°18.537 2°54.046 16.7948 4.019551 30.949119 3.596207
2008-06-10 12:20:08 51°18.501 2°54.029 16.791 4.02121 30.961492 3.839975
2008-06-10 12:21:09 51°18.446 2°54.015 16.8096 4.022662 30.970842 3.979271
2008-06-10 12:22:08 51°18.391 2°53.924 16.8107 4.026188 30.987419 4.292688
2008-06-10 12:23:08 51°18.36 2°53.741 16.82 4.028263 31.008318 4.57128
2008-06-10 12:24:08 51°18.412 2°53.467 16.8132 4.02764 30.999872 4.640929
2008-06-10 12:25:08 51°18.538 2°53.221 16.7561 4.017476 30.925119 3.805151
2008-06-10 12:26:08 51°18.665 2°52.973 16.677 3.997149 30.797188 3.700679
2008-06-10 12:27:08 51°18.75 2°52.782 16.6812 3.976927 30.685977 3.665855
2008-06-10 12:28:08 51°18.733 2°52.701 16.6721 3.970912 30.614564 3.039022
2008-06-10 12:29:09 51°18.724 2°52.692 16.662 3.969149 30.610517 3.456911
2008-06-10 12:30:09 51°18.696 2°52.669 16.6599 3.967594 30.616885 3.700679
2008-06-10 12:31:08 51°18.644 2°52.692 16.6123 3.967594 30.629229 3.665855
2008-06-10 12:32:08 51°18.63 2°52.702 16.652 3.96635 30.633352 3.10867
2008-06-10 12:33:08 51°18.631 2°52.732 16.7151 3.969668 30.611889 2.551485
2008-06-10 12:34:08 51°18.639 2°52.765 16.6939 3.973608 30.606918 2.447013
2008-06-10 12:35:08 51°18.646 2°52.778 16.7202 3.971741 30.60198 2.655957
2008-06-10 12:36:08 51°18.648 2°52.769 16.7341 3.972778 30.598572 2.621133
2008-06-10 12:37:08 51°18.646 2°52.759 16.6855 3.973919 30.592984 2.412189
2008-06-10 12:38:08 51°18.637 2°52.758 16.6962 3.967905 30.60291 3.004198
2008-06-10 12:39:09 51°18.629 2°52.76 16.7014 3.969667 30.582954 2.864902
2008-06-10 12:40:08 51°18.631 2°52.766 16.7225 3.969771 30.581999 2.969374
2008-06-10 12:41:09 51°18.634 2°52.761 16.7521 3.972156 30.577256 2.481837
2008-06-10 12:42:08 51°18.638 2°52.756 16.7477 3.972156 30.575413 2.377365
2008-06-10 12:43:09 51°18.643 2°52.754 16.6739 3.971741 30.565718 2.203245
2008-06-10 12:44:08 51°18.635 2°52.777 16.6848 3.965312 30.576335 2.969374
2008-06-10 12:45:09 51°18.543 2°52.823 16.7227 3.965312 30.55542 2.899726
2008-06-10 12:46:09 51°18.37 2°52.747 16.6533 3.969771 30.585689 3.039022
2008-06-10 12:47:08 51°18.163 2°52.655 16.6742 3.972157 30.639432 3.665855
2008-06-10 12:48:09 51°17.939 2°52.6 16.7504 3.987505 30.745936 3.805151
2008-06-10 12:49:08 51°17.722 2°52.593 16.7617 4.004409 30.861366 4.466808
2008-06-10 12:50:08 51°17.502 2°52.591 16.7971 4.019758 30.966433 5.093641
2008-06-10 12:51:08 51°17.283 2°52.568 16.7741 4.031997 31.055295 5.650826
2008-06-10 12:52:08 51°17.073 2°52.625 16.7507 4.037494 31.11497 5.581178
2008-06-10 12:53:08 51°16.869 2°52.721 16.7351 4.040295 31.165304 5.267761
2008-06-10 12:54:08 51°16.671 2°52.833 16.8465 4.053052 31.268721 4.675753
2008-06-10 12:55:09 51°16.469 2°52.939 16.8874 4.080642 31.412084 4.014096
2008-06-10 12:56:08 51°16.272 2°53.035 16.8594 4.092156 31.505879 3.247966
2008-06-10 12:57:09 51°16.067 2°53.129 16.8784 4.087488 31.478414 3.213142
2008-06-10 12:58:08 51°15.868 2°53.215 17.0534 4.079397 31.363096 4.188216
2008-06-10 12:59:09 51°15.666 2°53.317 17.0008 4.081781 31.296586 3.874799
2008-06-10 13:00:08 51°15.48 2°53.438 17.0139 4.083026 31.336582 3.805151
2008-06-10 13:01:09 51°15.297 2°53.592 17.0577 4.065081 31.160089 3.979271
2008-06-10 13:02:09 51°15.121 2°53.747 16.9377 4.051078 31.03244 4.118568
2008-06-10 13:03:09 51°14.948 2°53.914 17.0183 4.033654 30.937363 4.710577
2008-06-10 13:04:09 51°14.806 2°54.132 17.0554 4.028363 30.844754 5.33741
2008-06-10 13:05:08 51°14.677 2°54.361 17.1001 4.02048 30.748111 5.790122
2008-06-10 13:06:09 51°14.543 2°54.594 17.1339 3.99673 30.535517 6.765196
2008-06-10 13:07:08 51°14.43 2°54.834 17.1583 3.983766 30.400443 7.183084
2008-06-10 13:08:08 51°14.327 2°55.099 17.3501 3.958564 30.096725 10.143129
2008-06-10 13:09:09 51°14.204 2°55.337 17.1542 3.899974 29.471985 9.20288
2008-06-10 13:10:09 51°14.072 2°55.452 17.2355 3.772768 28.554313 8.401926